Aérodrome :
LOGIN :

S'inscrire | Disclaimer

   EN    FR    IT 

 










Légende :    VFR   VFR Marginal   IFR   IFR Intensif   IFR Très Intensif
Visi : 
Plafond : 
>= 8 km
>= 3000ft
5 à 8 km
1000 à 3000 ft
1500m à 5 km
500 à 1000 ft
800 à 1500m
200 à 500 ft
< 800m
< 200 ft
Symboles :   Orages  Brouillard  Fortes neiges  Fortes précipitations  Vent > 20 kt
SIGMETs :   Divers  Orages  Givrage  Turbulence  Onde Orograph.  Cendres Volcan.







- Altitude de l'aérodrome : 3 ft
- Code IATA : LWR


EHLW - Leuuwarden Air Base

DERNIER METAR :
  • 170725Z AUTO 19005KT 150V230 9999 SCT098 OVC100 21/17 Q1012 BLU VRB03KT CAVOK RMK R27

METARs EXPIRÉS :
  • 170655Z AUTO 17005KT 130V220 9999 BKN180 21/16 Q1012 BLU VRB03KT CAVOK RMK R27
  • 170625Z AUTO 17004KT 130V210 9999 OVC160 19/15 Q1012 BLU VRB03KT CAVOK RMK R27
  • 170555Z AUTO 20005KT 170V250 9999 OVC160 19/15 Q1012 BLU VRB03KT CAVOK RMK R27
  • 170544Z AUTO 20004KT 100V250 9999 OVC160 19/15 Q1012 BLU VRB03KT CAVOK RMK R27
  • 170525Z AUTO VRB02KT 9999 OVC160 19/15 Q1012 BLU
  • 170455Z AUTO VRB02KT 9999 OVC160 19/14 Q1012 BLU

TAF TAF EHLW
Valide du 17 à 05h jusqu'au 17 à 17h UTC


170453Z 1705/1717 VRB02KT CAVOK
BECMG 1709/1711 26012G22KT
PROB30
TEMPO 1715/1717 FEW012 SCT015
Pas de NOTAMs connus pour ce terrain.



MET'MAP, la Météo Aéronautique d'un coup d'oeil ! - Copyright ORBIFLY Décembre 2007 - Disclaimer

ORBIFLY MET'MAP TEAM :

Programmation & Développement : Alexandra Zaïnal
Conception & Développement : Baudouin d'Aumeries
Co-Programmation & Développement : Marc-Olivier Méhu
Soutien technique & logistique : Manuel Goepfert

Contact : metmap@orbifly.com




SOURCES & CREDITS :

   NOAA